sensor_id;sensor_type;location;lat;lon;timestamp;temperature;humidity
2889;DHT22;1453;42.708;23.282;2022-09-09T00:04:55;18.90;99.90
2889;DHT22;1453;42.708;23.282;2022-09-09T00:07:45;19.10;99.90
2889;DHT22;1453;42.708;23.282;2022-09-09T00:10:29;19.00;99.90
2889;DHT22;1453;42.708;23.282;2022-09-09T00:16:22;19.00;99.90
2889;DHT22;1453;42.708;23.282;2022-09-09T00:19:06;18.90;99.90
2889;DHT22;1453;42.708;23.282;2022-09-09T00:21:38;19.00;99.90
2889;DHT22;1453;42.708;23.282;2022-09-09T00:24:23;19.10;99.90
2889;DHT22;1453;42.708;23.282;2022-09-09T00:26:56;19.10;99.90
2889;DHT22;1453;42.708;23.282;2022-09-09T00:29:43;19.20;99.90
2889;DHT22;1453;42.708;23.282;2022-09-09T00:32:16;19.10;99.90
2889;DHT22;1453;42.708;23.282;2022-09-09T00:34:55;18.60;99.90
2889;DHT22;1453;42.708;23.282;2022-09-09T00:37:25;18.60;99.90
2889;DHT22;1453;42.708;23.282;2022-09-09T00:39:55;18.70;99.90
2889;DHT22;1453;42.708;23.282;2022-09-09T00:42:32;18.80;99.90
2889;DHT22;1453;42.708;23.282;2022-09-09T00:51:39;18.60;99.90
2889;DHT22;1453;42.708;23.282;2022-09-09T00:54:19;18.80;99.90
2889;DHT22;1453;42.708;23.282;2022-09-09T01:08:28;19.10;99.90
2889;DHT22;1453;42.708;23.282;2022-09-09T01:11:22;18.90;99.90
2889;DHT22;1453;42.708;23.282;2022-09-09T01:13:58;18.80;99.90
2889;DHT22;1453;42.708;23.282;2022-09-09T01:16:29;18.80;99.90
2889;DHT22;1453;42.708;23.282;2022-09-09T01:18:57;18.70;99.90
2889;DHT22;1453;42.708;23.282;2022-09-09T01:21:45;18.70;99.90
2889;DHT22;1453;42.708;23.282;2022-09-09T01:24:36;18.60;99.90
2889;DHT22;1453;42.708;23.282;2022-09-09T01:27:06;18.50;99.90
2889;DHT22;1453;42.708;23.282;2022-09-09T01:29:33;18.60;99.90
2889;DHT22;1453;42.708;23.282;2022-09-09T01:38:08;18.70;99.90
2889;DHT22;1453;42.708;23.282;2022-09-09T01:40:34;18.90;99.90
2889;DHT22;1453;42.708;23.282;2022-09-09T01:43:00;18.80;99.90
2889;DHT22;1453;42.708;23.282;2022-09-09T01:45:26;18.70;99.90
2889;DHT22;1453;42.708;23.282;2022-09-09T01:47:52;18.60;99.90
2889;DHT22;1453;42.708;23.282;2022-09-09T01:50:19;18.60;99.90
2889;DHT22;1453;42.708;23.282;2022-09-09T01:52:50;18.60;99.90
2889;DHT22;1453;42.708;23.282;2022-09-09T01:55:28;18.60;99.90
2889;DHT22;1453;42.708;23.282;2022-09-09T02:01:02;18.40;99.90
2889;DHT22;1453;42.708;23.282;2022-09-09T02:03:35;18.30;99.90
2889;DHT22;1453;42.708;23.282;2022-09-09T02:08:56;18.20;99.90
2889;DHT22;1453;42.708;23.282;2022-09-09T02:11:25;18.10;99.90
2889;DHT22;1453;42.708;23.282;2022-09-09T02:13:57;17.30;99.90
2889;DHT22;1453;42.708;23.282;2022-09-09T02:16:40;17.20;99.90
2889;DHT22;1453;42.708;23.282;2022-09-09T02:19:19;17.40;99.90
2889;DHT22;1453;42.708;23.282;2022-09-09T02:22:07;17.50;99.90
2889;DHT22;1453;42.708;23.282;2022-09-09T02:24:37;17.10;99.90
2889;DHT22;1453;42.708;23.282;2022-09-09T02:27:05;17.30;99.90
2889;DHT22;1453;42.708;23.282;2022-09-09T02:29:38;17.00;99.90
2889;DHT22;1453;42.708;23.282;2022-09-09T02:32:10;17.20;99.90
2889;DHT22;1453;42.708;23.282;2022-09-09T02:34:42;17.20;99.90
2889;DHT22;1453;42.708;23.282;2022-09-09T02:37:11;17.60;99.90
2889;DHT22;1453;42.708;23.282;2022-09-09T02:39:37;17.40;99.90
2889;DHT22;1453;42.708;23.282;2022-09-09T02:42:06;17.50;99.90
2889;DHT22;1453;42.708;23.282;2022-09-09T02:44:33;17.30;99.90
2889;DHT22;1453;42.708;23.282;2022-09-09T02:58:05;16.30;99.90
2889;DHT22;1453;42.708;23.282;2022-09-09T03:00:33;16.20;99.90
2889;DHT22;1453;42.708;23.282;2022-09-09T03:03:04;16.60;99.90
2889;DHT22;1453;42.708;23.282;2022-09-09T03:05:31;16.70;99.90
2889;DHT22;1453;42.708;23.282;2022-09-09T03:07:57;16.30;99.90
2889;DHT22;1453;42.708;23.282;2022-09-09T03:10:23;16.30;99.90
2889;DHT22;1453;42.708;23.282;2022-09-09T03:12:49;16.50;99.90
2889;DHT22;1453;42.708;23.282;2022-09-09T03:15:16;16.40;99.90
2889;DHT22;1453;42.708;23.282;2022-09-09T03:17:42;16.60;99.90
2889;DHT22;1453;42.708;23.282;2022-09-09T03:20:08;16.80;99.90
2889;DHT22;1453;42.708;23.282;2022-09-09T03:22:34;16.90;99.90
2889;DHT22;1453;42.708;23.282;2022-09-09T03:25:01;17.00;99.90
2889;DHT22;1453;42.708;23.282;2022-09-09T03:27:28;17.00;99.90
2889;DHT22;1453;42.708;23.282;2022-09-09T03:29:54;17.00;99.90
2889;DHT22;1453;42.708;23.282;2022-09-09T03:32:21;17.10;99.90
2889;DHT22;1453;42.708;23.282;2022-09-09T03:34:48;17.10;99.90
2889;DHT22;1453;42.708;23.282;2022-09-09T03:37:18;17.20;99.90
2889;DHT22;1453;42.708;23.282;2022-09-09T03:39:44;17.20;99.90
2889;DHT22;1453;42.708;23.282;2022-09-09T03:42:14;17.20;99.90
2889;DHT22;1453;42.708;23.282;2022-09-09T03:44:44;16.80;99.90
2889;DHT22;1453;42.708;23.282;2022-09-09T03:47:17;16.90;99.90
2889;DHT22;1453;42.708;23.282;2022-09-09T03:49:44;16.30;99.90
2889;DHT22;1453;42.708;23.282;2022-09-09T03:52:10;16.00;99.90
2889;DHT22;1453;42.708;23.282;2022-09-09T03:54:36;16.20;99.90
2889;DHT22;1453;42.708;23.282;2022-09-09T03:57:03;16.40;99.90
2889;DHT22;1453;42.708;23.282;2022-09-09T03:59:29;16.80;99.90
2889;DHT22;1453;42.708;23.282;2022-09-09T04:01:55;17.00;99.90
2889;DHT22;1453;42.708;23.282;2022-09-09T04:04:22;17.20;99.90
2889;DHT22;1453;42.708;23.282;2022-09-09T04:06:48;17.00;99.90
2889;DHT22;1453;42.708;23.282;2022-09-09T04:09:14;17.10;99.90
2889;DHT22;1453;42.708;23.282;2022-09-09T04:11:40;17.00;99.90
2889;DHT22;1453;42.708;23.282;2022-09-09T04:14:06;17.10;99.90
2889;DHT22;1453;42.708;23.282;2022-09-09T04:16:33;17.20;99.90
2889;DHT22;1453;42.708;23.282;2022-09-09T04:19:00;17.30;99.90
2889;DHT22;1453;42.708;23.282;2022-09-09T04:21:26;17.20;99.90
2889;DHT22;1453;42.708;23.282;2022-09-09T04:23:52;17.00;99.90
2889;DHT22;1453;42.708;23.282;2022-09-09T04:26:18;17.10;99.90
2889;DHT22;1453;42.708;23.282;2022-09-09T04:28:45;16.80;99.90
2889;DHT22;1453;42.708;23.282;2022-09-09T04:31:16;16.60;99.90
2889;DHT22;1453;42.708;23.282;2022-09-09T04:33:45;16.90;99.90
2889;DHT22;1453;42.708;23.282;2022-09-09T04:36:12;17.10;99.90
2889;DHT22;1453;42.708;23.282;2022-09-09T04:38:38;16.70;99.90
2889;DHT22;1453;42.708;23.282;2022-09-09T04:41:05;16.20;99.90
2889;DHT22;1453;42.708;23.282;2022-09-09T04:43:33;16.20;99.90
2889;DHT22;1453;42.708;23.282;2022-09-09T04:45:59;16.30;99.90
2889;DHT22;1453;42.708;23.282;2022-09-09T04:48:25;16.30;99.90
2889;DHT22;1453;42.708;23.282;2022-09-09T04:50:55;16.20;99.90
2889;DHT22;1453;42.708;23.282;2022-09-09T04:53:25;16.50;99.90
2889;DHT22;1453;42.708;23.282;2022-09-09T04:55:53;16.80;99.90
2889;DHT22;1453;42.708;23.282;2022-09-09T04:58:27;17.20;99.90
2889;DHT22;1453;42.708;23.282;2022-09-09T05:00:53;17.50;99.90
2889;DHT22;1453;42.708;23.282;2022-09-09T05:03:18;17.20;99.90
2889;DHT22;1453;42.708;23.282;2022-09-09T05:05:44;17.10;99.90
2889;DHT22;1453;42.708;23.282;2022-09-09T05:08:10;17.00;99.90
2889;DHT22;1453;42.708;23.282;2022-09-09T05:10:38;17.20;99.90
2889;DHT22;1453;42.708;23.282;2022-09-09T05:13:04;17.50;99.90
2889;DHT22;1453;42.708;23.282;2022-09-09T05:15:32;17.90;99.90
2889;DHT22;1453;42.708;23.282;2022-09-09T05:17:59;18.20;99.90
2889;DHT22;1453;42.708;23.282;2022-09-09T05:20:26;18.50;99.90
2889;DHT22;1453;42.708;23.282;2022-09-09T05:22:54;18.80;99.90
2889;DHT22;1453;42.708;23.282;2022-09-09T05:25:20;19.10;99.90
2889;DHT22;1453;42.708;23.282;2022-09-09T05:27:47;19.10;99.90
2889;DHT22;1453;42.708;23.282;2022-09-09T05:30:15;19.20;99.90
2889;DHT22;1453;42.708;23.282;2022-09-09T05:32:41;19.20;99.90
2889;DHT22;1453;42.708;23.282;2022-09-09T05:35:07;19.30;99.90
2889;DHT22;1453;42.708;23.282;2022-09-09T05:37:33;19.50;99.90
2889;DHT22;1453;42.708;23.282;2022-09-09T05:39:58;19.50;99.90
2889;DHT22;1453;42.708;23.282;2022-09-09T05:42:30;19.40;99.90
2889;DHT22;1453;42.708;23.282;2022-09-09T05:44:56;19.50;99.90
2889;DHT22;1453;42.708;23.282;2022-09-09T05:47:23;19.50;99.90
2889;DHT22;1453;42.708;23.282;2022-09-09T05:49:49;19.70;99.90
2889;DHT22;1453;42.708;23.282;2022-09-09T05:52:15;19.70;99.90
2889;DHT22;1453;42.708;23.282;2022-09-09T05:54:40;19.40;99.90
2889;DHT22;1453;42.708;23.282;2022-09-09T05:57:08;19.30;99.90
2889;DHT22;1453;42.708;23.282;2022-09-09T05:59:34;19.50;99.90
2889;DHT22;1453;42.708;23.282;2022-09-09T06:02:00;19.80;99.90
2889;DHT22;1453;42.708;23.282;2022-09-09T06:04:25;20.10;99.90
2889;DHT22;1453;42.708;23.282;2022-09-09T06:06:51;20.10;99.90
2889;DHT22;1453;42.708;23.282;2022-09-09T06:09:17;19.40;99.90
2889;DHT22;1453;42.708;23.282;2022-09-09T06:11:43;19.50;99.90
2889;DHT22;1453;42.708;23.282;2022-09-09T06:14:09;20.00;99.90
2889;DHT22;1453;42.708;23.282;2022-09-09T06:16:35;20.40;99.90
2889;DHT22;1453;42.708;23.282;2022-09-09T06:19:03;20.90;99.90
2889;DHT22;1453;42.708;23.282;2022-09-09T06:21:32;21.80;99.90
2889;DHT22;1453;42.708;23.282;2022-09-09T06:24:00;22.70;99.90
2889;DHT22;1453;42.708;23.282;2022-09-09T06:26:31;23.60;99.90
2889;DHT22;1453;42.708;23.282;2022-09-09T06:29:01;23.20;99.90
2889;DHT22;1453;42.708;23.282;2022-09-09T06:31:30;23.50;99.90
2889;DHT22;1453;42.708;23.282;2022-09-09T06:33:59;24.50;99.90
2889;DHT22;1453;42.708;23.282;2022-09-09T06:36:30;24.50;99.90
2889;DHT22;1453;42.708;23.282;2022-09-09T06:38:58;24.10;99.90
2889;DHT22;1453;42.708;23.282;2022-09-09T06:41:26;24.50;99.90
2889;DHT22;1453;42.708;23.282;2022-09-09T06:43:53;24.00;99.90
2889;DHT22;1453;42.708;23.282;2022-09-09T06:46:23;24.60;99.90
2889;DHT22;1453;42.708;23.282;2022-09-09T06:48:53;24.60;99.90
2889;DHT22;1453;42.708;23.282;2022-09-09T06:51:30;24.60;99.90
2889;DHT22;1453;42.708;23.282;2022-09-09T06:53:59;25.40;99.90
2889;DHT22;1453;42.708;23.282;2022-09-09T06:56:38;26.20;98.40
2889;DHT22;1453;42.708;23.282;2022-09-09T06:59:09;27.00;96.30
2889;DHT22;1453;42.708;23.282;2022-09-09T07:01:41;26.40;95.30
2889;DHT22;1453;42.708;23.282;2022-09-09T07:04:09;25.70;95.60
2889;DHT22;1453;42.708;23.282;2022-09-09T07:06:44;25.90;96.20
2889;DHT22;1453;42.708;23.282;2022-09-09T07:09:14;25.60;96.30
2889;DHT22;1453;42.708;23.282;2022-09-09T07:11:45;26.00;95.50
2889;DHT22;1453;42.708;23.282;2022-09-09T07:14:13;26.70;94.80
2889;DHT22;1453;42.708;23.282;2022-09-09T07:16:43;27.10;92.50
2889;DHT22;1453;42.708;23.282;2022-09-09T07:19:11;26.10;93.10
2889;DHT22;1453;42.708;23.282;2022-09-09T07:21:38;24.90;95.50
2889;DHT22;1453;42.708;23.282;2022-09-09T07:24:06;24.40;97.50
2889;DHT22;1453;42.708;23.282;2022-09-09T07:26:35;24.20;98.80
2889;DHT22;1453;42.708;23.282;2022-09-09T07:29:02;25.90;96.80
2889;DHT22;1453;42.708;23.282;2022-09-09T07:31:30;27.20;94.50
2889;DHT22;1453;42.708;23.282;2022-09-09T07:33:58;28.10;92.40
2889;DHT22;1453;42.708;23.282;2022-09-09T07:36:30;28.60;90.60
2889;DHT22;1453;42.708;23.282;2022-09-09T07:39:11;27.90;87.80
2889;DHT22;1453;42.708;23.282;2022-09-09T07:41:45;27.20;87.80
2889;DHT22;1453;42.708;23.282;2022-09-09T07:44:18;28.30;85.90
2889;DHT22;1453;42.708;23.282;2022-09-09T07:46:46;28.30;83.40
2889;DHT22;1453;42.708;23.282;2022-09-09T07:49:13;28.70;81.80
2889;DHT22;1453;42.708;23.282;2022-09-09T07:51:42;29.10;80.80
2889;DHT22;1453;42.708;23.282;2022-09-09T07:54:11;29.30;79.00
2889;DHT22;1453;42.708;23.282;2022-09-09T07:56:39;29.70;77.00
2889;DHT22;1453;42.708;23.282;2022-09-09T07:59:06;29.30;76.00
2889;DHT22;1453;42.708;23.282;2022-09-09T08:01:34;29.40;78.50
2889;DHT22;1453;42.708;23.282;2022-09-09T08:04:06;29.70;76.00
2889;DHT22;1453;42.708;23.282;2022-09-09T08:06:39;28.30;78.60
2889;DHT22;1453;42.708;23.282;2022-09-09T08:09:07;29.00;79.40
2889;DHT22;1453;42.708;23.282;2022-09-09T08:11:33;29.40;76.20
2889;DHT22;1453;42.708;23.282;2022-09-09T08:14:01;28.30;79.20
2889;DHT22;1453;42.708;23.282;2022-09-09T08:16:31;28.90;79.10
2889;DHT22;1453;42.708;23.282;2022-09-09T08:18:59;29.40;77.30
2889;DHT22;1453;42.708;23.282;2022-09-09T08:21:27;30.00;76.00
2889;DHT22;1453;42.708;23.282;2022-09-09T08:23:56;29.20;77.30
2889;DHT22;1453;42.708;23.282;2022-09-09T08:26:34;29.80;77.40
2889;DHT22;1453;42.708;23.282;2022-09-09T08:29:06;30.60;74.90
2889;DHT22;1453;42.708;23.282;2022-09-09T08:31:36;29.50;75.10
2889;DHT22;1453;42.708;23.282;2022-09-09T08:34:04;29.30;76.30
2889;DHT22;1453;42.708;23.282;2022-09-09T08:36:37;29.50;76.60
2889;DHT22;1453;42.708;23.282;2022-09-09T08:39:06;29.60;76.40
2889;DHT22;1453;42.708;23.282;2022-09-09T08:44:23;29.50;74.70
2889;DHT22;1453;42.708;23.282;2022-09-09T08:50:28;28.90;77.20
2889;DHT22;1453;42.708;23.282;2022-09-09T08:55:47;29.90;73.40
2889;DHT22;1453;42.708;23.282;2022-09-09T08:58:23;29.10;75.50
2889;DHT22;1453;42.708;23.282;2022-09-09T09:06:46;31.50;73.30
2889;DHT22;1453;42.708;23.282;2022-09-09T09:12:43;31.60;71.20
2889;DHT22;1453;42.708;23.282;2022-09-09T09:15:18;31.10;71.80
2889;DHT22;1453;42.708;23.282;2022-09-09T09:17:46;31.30;71.70
2889;DHT22;1453;42.708;23.282;2022-09-09T09:20:16;31.50;70.00
2889;DHT22;1453;42.708;23.282;2022-09-09T09:22:52;31.40;69.70
2889;DHT22;1453;42.708;23.282;2022-09-09T09:25:23;30.20;70.70
2889;DHT22;1453;42.708;23.282;2022-09-09T09:30:42;29.20;73.90
2889;DHT22;1453;42.708;23.282;2022-09-09T09:36:16;28.00;76.00
2889;DHT22;1453;42.708;23.282;2022-09-09T09:38:59;26.90;80.20
2889;DHT22;1453;42.708;23.282;2022-09-09T09:41:33;26.80;82.30
2889;DHT22;1453;42.708;23.282;2022-09-09T09:44:02;28.00;80.70
2889;DHT22;1453;42.708;23.282;2022-09-09T09:46:28;28.20;78.90
2889;DHT22;1453;42.708;23.282;2022-09-09T09:49:02;28.10;79.10
2889;DHT22;1453;42.708;23.282;2022-09-09T09:51:32;28.50;78.40
2889;DHT22;1453;42.708;23.282;2022-09-09T09:56:42;29.10;78.10
2889;DHT22;1453;42.708;23.282;2022-09-09T09:59:32;29.20;77.40
2889;DHT22;1453;42.708;23.282;2022-09-09T10:02:31;29.00;77.40
2889;DHT22;1453;42.708;23.282;2022-09-09T10:05:08;28.90;78.00
2889;DHT22;1453;42.708;23.282;2022-09-09T10:07:41;28.90;77.80
2889;DHT22;1453;42.708;23.282;2022-09-09T10:10:15;28.40;77.20
2889;DHT22;1453;42.708;23.282;2022-09-09T10:13:00;27.80;78.50
2889;DHT22;1453;42.708;23.282;2022-09-09T10:31:53;27.70;81.80
2889;DHT22;1453;42.708;23.282;2022-09-09T10:35:01;27.50;82.30
2889;DHT22;1453;42.708;23.282;2022-09-09T10:54:49;26.60;88.50
2889;DHT22;1453;42.708;23.282;2022-09-09T10:57:48;26.40;88.70
2889;DHT22;1453;42.708;23.282;2022-09-09T11:02:57;26.10;90.60
2889;DHT22;1453;42.708;23.282;2022-09-09T11:05:42;26.20;91.10
2889;DHT22;1453;42.708;23.282;2022-09-09T11:08:15;26.10;91.80
2889;DHT22;1453;42.708;23.282;2022-09-09T11:10:45;26.00;92.10
2889;DHT22;1453;42.708;23.282;2022-09-09T11:16:29;26.00;93.10
2889;DHT22;1453;42.708;23.282;2022-09-09T11:19:04;26.30;92.90
2889;DHT22;1453;42.708;23.282;2022-09-09T11:21:48;26.40;93.40
2889;DHT22;1453;42.708;23.282;2022-09-09T11:30:33;26.70;93.10
2889;DHT22;1453;42.708;23.282;2022-09-09T11:44:41;27.60;92.50
2889;DHT22;1453;42.708;23.282;2022-09-09T11:47:50;27.70;92.50
2889;DHT22;1453;42.708;23.282;2022-09-09T11:52:46;27.50;92.50
2889;DHT22;1453;42.708;23.282;2022-09-09T11:55:34;27.50;92.50
2889;DHT22;1453;42.708;23.282;2022-09-09T12:00:48;28.40;91.50
2889;DHT22;1453;42.708;23.282;2022-09-09T12:12:17;31.00;84.30
2889;DHT22;1453;42.708;23.282;2022-09-09T12:17:47;30.80;83.10
2889;DHT22;1453;42.708;23.282;2022-09-09T12:32:09;30.30;88.40
2889;DHT22;1453;42.708;23.282;2022-09-09T12:37:50;28.10;91.10
2889;DHT22;1453;42.708;23.282;2022-09-09T12:42:49;28.50;92.70
2889;DHT22;1453;42.708;23.282;2022-09-09T12:45:26;27.20;92.70
2889;DHT22;1453;42.708;23.282;2022-09-09T12:48:06;26.60;93.50
2889;DHT22;1453;42.708;23.282;2022-09-09T12:50:51;26.30;96.10
2889;DHT22;1453;42.708;23.282;2022-09-09T12:53:24;25.90;97.40
2889;DHT22;1453;42.708;23.282;2022-09-09T12:56:06;25.70;98.40
2889;DHT22;1453;42.708;23.282;2022-09-09T12:58:35;26.00;98.10
2889;DHT22;1453;42.708;23.282;2022-09-09T13:01:03;26.30;98.20
2889;DHT22;1453;42.708;23.282;2022-09-09T13:03:32;26.60;96.50
2889;DHT22;1453;42.708;23.282;2022-09-09T13:06:10;26.10;98.20
2889;DHT22;1453;42.708;23.282;2022-09-09T13:08:39;26.20;99.00
2889;DHT22;1453;42.708;23.282;2022-09-09T13:11:20;26.30;98.70
2889;DHT22;1453;42.708;23.282;2022-09-09T13:13:57;26.00;98.20
2889;DHT22;1453;42.708;23.282;2022-09-09T13:16:34;26.50;98.40
2889;DHT22;1453;42.708;23.282;2022-09-09T13:19:09;25.90;99.90
2889;DHT22;1453;42.708;23.282;2022-09-09T13:21:39;26.10;99.90
2889;DHT22;1453;42.708;23.282;2022-09-09T13:24:19;26.00;99.90
2889;DHT22;1453;42.708;23.282;2022-09-09T13:27:03;25.80;99.90
2889;DHT22;1453;42.708;23.282;2022-09-09T13:29:54;25.70;99.90
2889;DHT22;1453;42.708;23.282;2022-09-09T13:32:21;26.00;99.90
2889;DHT22;1453;42.708;23.282;2022-09-09T13:34:56;26.00;99.90
2889;DHT22;1453;42.708;23.282;2022-09-09T13:37:24;26.40;99.90
2889;DHT22;1453;42.708;23.282;2022-09-09T13:39:55;26.50;99.90
2889;DHT22;1453;42.708;23.282;2022-09-09T13:42:32;26.50;99.90
2889;DHT22;1453;42.708;23.282;2022-09-09T13:45:01;26.30;99.90
2889;DHT22;1453;42.708;23.282;2022-09-09T13:47:33;26.30;99.90
2889;DHT22;1453;42.708;23.282;2022-09-09T13:52:44;26.50;99.90
2889;DHT22;1453;42.708;23.282;2022-09-09T13:55:11;26.10;99.90
2889;DHT22;1453;42.708;23.282;2022-09-09T13:57:37;26.10;99.90
2889;DHT22;1453;42.708;23.282;2022-09-09T14:00:03;26.00;99.90
2889;DHT22;1453;42.708;23.282;2022-09-09T14:02:29;26.00;98.20
2889;DHT22;1453;42.708;23.282;2022-09-09T14:04:56;26.00;98.70
2889;DHT22;1453;42.708;23.282;2022-09-09T14:07:22;26.10;99.50
2889;DHT22;1453;42.708;23.282;2022-09-09T14:09:48;26.20;99.90
2889;DHT22;1453;42.708;23.282;2022-09-09T14:12:15;26.50;98.90
2889;DHT22;1453;42.708;23.282;2022-09-09T14:14:42;26.30;99.60
2889;DHT22;1453;42.708;23.282;2022-09-09T14:17:09;26.00;99.90
2889;DHT22;1453;42.708;23.282;2022-09-09T14:19:35;26.00;98.50
2889;DHT22;1453;42.708;23.282;2022-09-09T14:22:02;26.50;96.30
2889;DHT22;1453;42.708;23.282;2022-09-09T14:24:28;26.40;96.30
2889;DHT22;1453;42.708;23.282;2022-09-09T14:26:54;26.50;96.00
2889;DHT22;1453;42.708;23.282;2022-09-09T14:29:20;26.60;96.40
2889;DHT22;1453;42.708;23.282;2022-09-09T14:31:46;26.90;95.40
2889;DHT22;1453;42.708;23.282;2022-09-09T14:34:12;27.20;94.90
2889;DHT22;1453;42.708;23.282;2022-09-09T14:36:40;27.80;94.00
2889;DHT22;1453;42.708;23.282;2022-09-09T14:39:07;28.00;93.60
2889;DHT22;1453;42.708;23.282;2022-09-09T14:41:33;27.30;94.30
2889;DHT22;1453;42.708;23.282;2022-09-09T14:43:59;28.20;94.10
2889;DHT22;1453;42.708;23.282;2022-09-09T14:46:25;29.20;92.60
2889;DHT22;1453;42.708;23.282;2022-09-09T14:48:52;29.00;92.80
2889;DHT22;1453;42.708;23.282;2022-09-09T14:51:21;29.10;92.80
2889;DHT22;1453;42.708;23.282;2022-09-09T14:53:51;28.90;92.50
2889;DHT22;1453;42.708;23.282;2022-09-09T14:56:22;29.20;91.90
2889;DHT22;1453;42.708;23.282;2022-09-09T14:58:50;29.20;91.70
2889;DHT22;1453;42.708;23.282;2022-09-09T15:01:19;29.20;91.10
2889;DHT22;1453;42.708;23.282;2022-09-09T15:03:51;28.90;91.70
2889;DHT22;1453;42.708;23.282;2022-09-09T15:06:26;29.10;91.50
2889;DHT22;1453;42.708;23.282;2022-09-09T15:08:54;28.20;92.70
2889;DHT22;1453;42.708;23.282;2022-09-09T15:11:23;28.00;92.80
2889;DHT22;1453;42.708;23.282;2022-09-09T15:13:51;27.80;93.70
2889;DHT22;1453;42.708;23.282;2022-09-09T15:16:19;28.10;93.30
2889;DHT22;1453;42.708;23.282;2022-09-09T15:18:46;28.90;92.20
2889;DHT22;1453;42.708;23.282;2022-09-09T15:21:17;29.50;90.10
2889;DHT22;1453;42.708;23.282;2022-09-09T15:23:45;29.70;88.70
2889;DHT22;1453;42.708;23.282;2022-09-09T15:26:12;29.70;88.00
2889;DHT22;1453;42.708;23.282;2022-09-09T15:28:44;28.50;90.90
2889;DHT22;1453;42.708;23.282;2022-09-09T15:31:24;28.30;91.60
2889;DHT22;1453;42.708;23.282;2022-09-09T15:34:01;27.40;93.50
2889;DHT22;1453;42.708;23.282;2022-09-09T15:36:36;26.80;94.30
2889;DHT22;1453;42.708;23.282;2022-09-09T15:39:06;26.80;94.60
2889;DHT22;1453;42.708;23.282;2022-09-09T15:41:33;26.80;94.10
2889;DHT22;1453;42.708;23.282;2022-09-09T15:44:00;27.20;94.10
2889;DHT22;1453;42.708;23.282;2022-09-09T15:46:43;27.70;93.20
2889;DHT22;1453;42.708;23.282;2022-09-09T15:49:13;27.40;92.90
2889;DHT22;1453;42.708;23.282;2022-09-09T15:51:46;27.20;93.30
2889;DHT22;1453;42.708;23.282;2022-09-09T15:54:21;27.40;93.50
2889;DHT22;1453;42.708;23.282;2022-09-09T15:56:57;27.40;93.30
2889;DHT22;1453;42.708;23.282;2022-09-09T15:59:25;27.10;94.60
2889;DHT22;1453;42.708;23.282;2022-09-09T16:01:56;27.00;95.30
2889;DHT22;1453;42.708;23.282;2022-09-09T16:04:23;27.00;95.20
2889;DHT22;1453;42.708;23.282;2022-09-09T16:07:01;27.10;95.50
2889;DHT22;1453;42.708;23.282;2022-09-09T16:09:30;27.10;95.40
2889;DHT22;1453;42.708;23.282;2022-09-09T16:11:57;26.60;96.70
2889;DHT22;1453;42.708;23.282;2022-09-09T16:14:24;26.20;98.30
2889;DHT22;1453;42.708;23.282;2022-09-09T16:16:53;25.50;99.90
2889;DHT22;1453;42.708;23.282;2022-09-09T16:19:19;25.20;99.90
2889;DHT22;1453;42.708;23.282;2022-09-09T16:21:46;25.00;99.90
2889;DHT22;1453;42.708;23.282;2022-09-09T16:24:16;24.90;99.90
2889;DHT22;1453;42.708;23.282;2022-09-09T16:26:45;24.80;99.90
2889;DHT22;1453;42.708;23.282;2022-09-09T16:29:14;24.80;99.90
2889;DHT22;1453;42.708;23.282;2022-09-09T16:31:41;25.10;99.90
2889;DHT22;1453;42.708;23.282;2022-09-09T16:34:07;25.30;99.90
2889;DHT22;1453;42.708;23.282;2022-09-09T16:36:35;25.00;99.90
2889;DHT22;1453;42.708;23.282;2022-09-09T16:39:05;25.00;99.90
2889;DHT22;1453;42.708;23.282;2022-09-09T16:41:33;25.10;99.90
2889;DHT22;1453;42.708;23.282;2022-09-09T16:44:04;25.20;99.90
2889;DHT22;1453;42.708;23.282;2022-09-09T16:46:34;25.10;99.90
2889;DHT22;1453;42.708;23.282;2022-09-09T16:49:04;24.80;99.90
2889;DHT22;1453;42.708;23.282;2022-09-09T16:51:34;24.90;99.90
2889;DHT22;1453;42.708;23.282;2022-09-09T16:54:06;24.80;99.90
2889;DHT22;1453;42.708;23.282;2022-09-09T16:56:35;24.50;99.90
2889;DHT22;1453;42.708;23.282;2022-09-09T16:59:19;24.60;99.90
2889;DHT22;1453;42.708;23.282;2022-09-09T17:01:47;24.80;99.90
2889;DHT22;1453;42.708;23.282;2022-09-09T17:04:17;24.60;99.90
2889;DHT22;1453;42.708;23.282;2022-09-09T17:06:51;24.40;99.90
2889;DHT22;1453;42.708;23.282;2022-09-09T17:09:19;24.40;99.90
2889;DHT22;1453;42.708;23.282;2022-09-09T17:11:45;24.70;99.90
2889;DHT22;1453;42.708;23.282;2022-09-09T17:14:15;24.90;99.90
2889;DHT22;1453;42.708;23.282;2022-09-09T17:16:43;24.80;99.90
2889;DHT22;1453;42.708;23.282;2022-09-09T17:19:09;24.60;99.90
2889;DHT22;1453;42.708;23.282;2022-09-09T17:21:36;24.20;99.90
2889;DHT22;1453;42.708;23.282;2022-09-09T17:24:03;24.40;99.90
2889;DHT22;1453;42.708;23.282;2022-09-09T17:26:31;24.70;99.90
2889;DHT22;1453;42.708;23.282;2022-09-09T17:28:59;24.70;99.90
2889;DHT22;1453;42.708;23.282;2022-09-09T17:31:27;24.90;99.90
2889;DHT22;1453;42.708;23.282;2022-09-09T17:33:54;25.20;99.90
2889;DHT22;1453;42.708;23.282;2022-09-09T17:36:29;25.20;99.90
2889;DHT22;1453;42.708;23.282;2022-09-09T17:38:57;25.40;99.90
2889;DHT22;1453;42.708;23.282;2022-09-09T17:41:28;25.40;99.90
2889;DHT22;1453;42.708;23.282;2022-09-09T17:43:55;25.20;99.90
2889;DHT22;1453;42.708;23.282;2022-09-09T17:46:26;25.30;99.90
2889;DHT22;1453;42.708;23.282;2022-09-09T17:48:59;25.20;99.90
2889;DHT22;1453;42.708;23.282;2022-09-09T17:51:27;25.00;99.90
2889;DHT22;1453;42.708;23.282;2022-09-09T17:53:57;24.90;99.90
2889;DHT22;1453;42.708;23.282;2022-09-09T17:56:27;24.70;99.90
2889;DHT22;1453;42.708;23.282;2022-09-09T17:58:56;24.60;99.90
2889;DHT22;1453;42.708;23.282;2022-09-09T18:01:25;24.60;99.90
2889;DHT22;1453;42.708;23.282;2022-09-09T18:03:54;24.50;99.90
2889;DHT22;1453;42.708;23.282;2022-09-09T18:06:25;24.50;99.90
2889;DHT22;1453;42.708;23.282;2022-09-09T18:08:58;24.20;99.90
2889;DHT22;1453;42.708;23.282;2022-09-09T18:11:31;23.80;99.90
2889;DHT22;1453;42.708;23.282;2022-09-09T18:14:00;23.80;99.90
2889;DHT22;1453;42.708;23.282;2022-09-09T18:16:28;23.90;99.90
2889;DHT22;1453;42.708;23.282;2022-09-09T18:18:57;24.30;99.90
2889;DHT22;1453;42.708;23.282;2022-09-09T18:21:24;24.30;99.90
2889;DHT22;1453;42.708;23.282;2022-09-09T18:23:52;24.40;99.90
2889;DHT22;1453;42.708;23.282;2022-09-09T18:26:23;24.40;99.90
2889;DHT22;1453;42.708;23.282;2022-09-09T18:28:52;24.30;99.90
2889;DHT22;1453;42.708;23.282;2022-09-09T18:31:25;24.10;99.90
2889;DHT22;1453;42.708;23.282;2022-09-09T18:33:52;24.00;99.90
2889;DHT22;1453;42.708;23.282;2022-09-09T18:36:24;24.10;99.90
2889;DHT22;1453;42.708;23.282;2022-09-09T18:38:51;24.00;99.90
2889;DHT22;1453;42.708;23.282;2022-09-09T18:43:47;24.10;99.90
2889;DHT22;1453;42.708;23.282;2022-09-09T18:46:14;24.00;99.90
2889;DHT22;1453;42.708;23.282;2022-09-09T18:48:41;24.00;99.90
2889;DHT22;1453;42.708;23.282;2022-09-09T18:51:11;24.00;99.90
2889;DHT22;1453;42.708;23.282;2022-09-09T18:53:38;24.00;99.90
2889;DHT22;1453;42.708;23.282;2022-09-09T18:56:08;23.90;99.90
2889;DHT22;1453;42.708;23.282;2022-09-09T18:58:36;23.40;99.90